Terminal Aerodrome Forecast
Issued by NWS

Home | Current Version | Previous Version | Text Only | Print | Product List | Glossary On
Versions: 1 2 3 4 5 6 7 8 9 10 11 12 13
265
FTUS45 KRIW 212338
TAFRKS
TAF
KRKS 212338Z 2200/2224 19025G35KT P6SM SCT080 SCT110
     FM220900 15012KT P6SM BKN110
     FM221400 19014G22KT P6SM SCT060 BKN090
     FM221800 22022G32KT P6SM SCT070 BKN150=

USA.gov is the U.S. government's official web portal to all federal, state and local government web resources and services.